Avondale, Louisiana
Current Conditions -  °F | °C
As of 8:53 PM on Friday 19 Dec 2014 (Local Time) from KMSY Reporting Station
Light Rain Light Rain  
Wind Chill: 51°   Ceiling: 900
Heat Index: 51°   Visibility: 5mi
Dew Point: 48°   Wind: 13mph
Humidity: 89%   Direction: 50°NE
Pressure: 30.09"   Gusts: NA
Location:  29.9137°N, 90.2078°W
Report Text: KMSY 200253Z 05011KT 5SM -RA BR OVC009 11/09 A3009 RMK AO2 SLP192 P0007 60017 T01060089 50008
Loading
Personal Weather Stations






























Interactive Weather Map New forecast layout! Learn more

10-Day Weather Forecast

Advertisements
Track Severe Weather on mobile